createdAt,value
2018-09-25T00:01:08.510Z,0
2018-09-25T00:02:18.414Z,0
2018-09-25T00:03:27.990Z,0
2018-09-25T00:04:37.842Z,0
2018-09-25T00:05:47.972Z,0
2018-09-25T00:06:58.100Z,0
2018-09-25T00:08:08.300Z,0
2018-09-25T00:09:18.158Z,0
2018-09-25T00:10:28.898Z,0
2018-09-25T00:11:39.133Z,0
2018-09-25T00:12:48.993Z,0
2018-09-25T00:13:59.183Z,0
2018-09-25T00:15:09.043Z,0
2018-09-25T00:16:18.625Z,0
2018-09-25T00:17:28.477Z,0
2018-09-25T00:18:38.056Z,0
2018-09-25T00:19:48.187Z,0
2018-09-25T00:20:57.763Z,0
2018-09-25T00:22:07.346Z,0
2018-09-25T00:23:16.923Z,0
2018-09-25T00:24:26.831Z,0
2018-09-25T00:25:38.686Z,0
2018-09-25T00:26:48.810Z,0
2018-09-25T00:27:58.390Z,0
2018-09-25T00:29:08.239Z,0
2018-09-25T00:30:17.817Z,0
2018-09-25T00:31:27.997Z,0
2018-09-25T00:32:37.849Z,0
2018-09-25T00:33:47.982Z,0
2018-09-25T00:34:58.107Z,0
2018-09-25T00:36:08.235Z,0
2018-09-25T00:37:17.816Z,0
2018-09-25T00:38:27.670Z,0
2018-09-25T00:39:37.803Z,0
2018-09-25T00:40:47.660Z,0
2018-09-25T00:41:57.509Z,0
2018-09-25T00:43:07.644Z,0
2018-09-25T00:44:17.501Z,0
2018-09-25T00:45:27.637Z,0
2018-09-25T00:46:37.506Z,0
2018-09-25T00:47:47.642Z,0
2018-09-25T00:48:57.001Z,0
2018-09-25T00:50:06.587Z,0
2018-09-25T00:51:16.718Z,0
2018-09-25T00:52:26.570Z,0
2018-09-25T00:53:36.177Z,0
2018-09-25T00:54:46.304Z,0
2018-09-25T00:55:55.882Z,0
2018-09-25T00:57:05.527Z,0
2018-09-25T00:58:15.656Z,0
2018-09-25T00:59:25.781Z,0
2018-09-25T01:00:35.082Z,0
2018-09-25T01:01:45.212Z,0
2018-09-25T01:02:55.344Z,0
2018-09-25T01:04:05.197Z,0
2018-09-25T01:05:15.053Z,0
2018-09-25T01:06:25.180Z,0
2018-09-25T01:07:35.040Z,0
2018-09-25T01:08:44.900Z,0
2018-09-25T01:09:54.754Z,0
2018-09-25T01:11:04.890Z,0
2018-09-25T01:12:14.467Z,0
2018-09-25T01:13:24.323Z,0
2018-09-25T01:14:34.173Z,0
2018-09-25T01:15:44.040Z,0
2018-09-25T01:16:53.895Z,0
2018-09-25T01:18:04.020Z,0
2018-09-25T01:19:14.501Z,0
2018-09-25T01:20:24.703Z,0
2018-09-25T01:21:34.836Z,0
2018-09-25T01:22:44.685Z,0
2018-09-25T01:23:54.820Z,0
2018-09-25T01:25:04.968Z,0
2018-09-25T01:26:14.817Z,0
2018-09-25T01:27:24.674Z,0
2018-09-25T01:28:34.528Z,0
2018-09-25T01:29:44.377Z,0
2018-09-25T01:30:54.225Z,0
2018-09-25T01:32:04.075Z,0
2018-09-25T01:33:14.216Z,0
2018-09-25T01:34:24.347Z,0
2018-09-25T01:35:34.202Z,0
2018-09-25T01:36:44.327Z,0
2018-09-25T01:37:54.458Z,0
2018-09-25T01:39:04.036Z,0
2018-09-25T01:40:14.167Z,0
2018-09-25T01:41:24.296Z,0
2018-09-25T01:42:34.421Z,0
2018-09-25T01:43:44.550Z,0
2018-09-25T01:44:54.408Z,0
2018-09-25T01:46:04.268Z,0
2018-09-25T01:47:14.396Z,0
2018-09-25T01:48:24.251Z,0
2018-09-25T01:49:33.550Z,0
2018-09-25T01:50:43.398Z,0
2018-09-25T01:51:53.248Z,0
2018-09-25T01:53:03.427Z,0
2018-09-25T01:54:13.569Z,0
2018-09-25T01:55:23.701Z,0
2018-09-25T01:56:33.827Z,0
2018-09-25T01:57:43.681Z,0
2018-09-25T01:58:53.807Z,0
2018-09-25T02:00:03.655Z,0
2018-09-25T02:01:13.781Z,0
2018-09-25T02:02:23.641Z,0
2018-09-25T02:03:33.219Z,0
2018-09-25T02:04:43.344Z,0
2018-09-25T02:05:53.754Z,0
2018-09-25T02:07:03.951Z,0
2018-09-25T02:08:13.809Z,0
2018-09-25T02:09:23.941Z,0
2018-09-25T02:10:34.073Z,0
2018-09-25T02:11:44.206Z,0
2018-09-25T02:12:54.059Z,0
2018-09-25T02:14:04.211Z,0
2018-09-25T02:15:14.345Z,0
2018-09-25T02:16:24.249Z,0
2018-09-25T02:17:34.105Z,0
2018-09-25T02:18:44.242Z,0
2018-09-25T02:19:54.094Z,0
2018-09-25T02:21:03.951Z,0
2018-09-25T02:22:14.083Z,0
2018-09-25T02:23:24.208Z,0
2018-09-25T02:24:34.064Z,0
2018-09-25T02:25:44.196Z,0
2018-09-25T02:26:53.778Z,0
2018-09-25T02:28:03.639Z,0
2018-09-25T02:29:13.764Z,0
2018-09-25T02:30:23.624Z,0
2018-09-25T02:31:33.490Z,0
2018-09-25T02:32:43.635Z,0
2018-09-25T02:33:53.816Z,0
2018-09-25T02:35:03.972Z,0
2018-09-25T02:36:14.099Z,0
2018-09-25T02:37:23.958Z,0
2018-09-25T02:38:34.091Z,0
2018-09-25T02:39:44.223Z,0
2018-09-25T02:40:54.103Z,0
2018-09-25T02:42:03.685Z,0
2018-09-25T02:43:13.539Z,0
2018-09-25T02:44:23.396Z,0
2018-09-25T02:45:33.252Z,0
2018-09-25T02:46:43.385Z,0
2018-09-25T02:47:52.418Z,0
2018-09-25T02:49:02.280Z,0
2018-09-25T02:50:11.869Z,0
2018-09-25T02:51:21.997Z,0
2018-09-25T02:52:31.856Z,0
2018-09-25T02:53:41.985Z,0
2018-09-25T02:54:52.118Z,0
2018-09-25T02:56:02.244Z,0
2018-09-25T02:57:12.430Z,0
2018-09-25T02:58:22.005Z,0
2018-09-25T02:59:31.855Z,0
2018-09-25T03:00:41.735Z,0
2018-09-25T03:01:51.318Z,0
2018-09-25T03:03:01.465Z,0
2018-09-25T03:04:11.602Z,0
2018-09-25T03:05:21.458Z,0
2018-09-25T03:06:31.595Z,0
2018-09-25T03:07:41.719Z,0
2018-09-25T03:08:51.303Z,0
2018-09-25T03:10:01.428Z,0
2018-09-25T03:11:11.005Z,0
2018-09-25T03:12:20.859Z,0
2018-09-25T03:13:30.437Z,0
2018-09-25T03:14:40.337Z,0
2018-09-25T03:15:50.468Z,0
2018-09-25T03:17:00.321Z,0
2018-09-25T03:18:10.173Z,0
2018-09-25T03:19:20.684Z,0
2018-09-25T03:20:31.022Z,0
2018-09-25T03:21:40.597Z,0
2018-09-25T03:22:50.745Z,0
2018-09-25T03:24:00.927Z,0
2018-09-25T03:25:11.169Z,0
2018-09-25T03:26:21.307Z,0
2018-09-25T03:27:31.157Z,0
2018-09-25T03:28:41.008Z,0
2018-09-25T03:29:50.584Z,0
2018-09-25T03:31:00.453Z,0
2018-09-25T03:32:10.646Z,0
2018-09-25T03:33:20.495Z,0
2018-09-25T03:34:30.344Z,0
2018-09-25T03:35:40.470Z,0
2018-09-25T03:36:50.608Z,0
2018-09-25T03:38:00.507Z,0
2018-09-25T03:39:10.085Z,0
2018-09-25T03:40:19.952Z,0
2018-09-25T03:41:29.801Z,0
2018-09-25T03:42:39.653Z,0
2018-09-25T03:43:49.791Z,0
2018-09-25T03:44:59.920Z,0
2018-09-25T03:46:10.052Z,0
2018-09-25T03:47:20.182Z,0
2018-09-25T03:48:30.316Z,0
2018-09-25T03:49:39.998Z,0
2018-09-25T03:50:49.584Z,0
2018-09-25T03:51:59.456Z,0
2018-09-25T03:53:09.589Z,0
2018-09-25T03:54:19.724Z,0
2018-09-25T03:55:29.671Z,0
2018-09-25T03:56:39.537Z,0
2018-09-25T03:57:49.664Z,0
2018-09-25T03:58:59.527Z,0
2018-09-25T04:00:09.112Z,0
2018-09-25T04:01:19.066Z,0
2018-09-25T04:02:29.190Z,0
2018-09-25T04:03:39.090Z,0
2018-09-25T04:04:48.949Z,0
2018-09-25T04:05:58.316Z,0
2018-09-25T04:07:08.227Z,0
2018-09-25T04:08:17.804Z,0
2018-09-25T04:09:27.939Z,0
2018-09-25T04:10:37.515Z,0
2018-09-25T04:11:47.367Z,0
2018-09-25T04:12:57.493Z,0
2018-09-25T04:14:07.364Z,0
2018-09-25T04:15:17.213Z,0
2018-09-25T04:16:26.790Z,0
2018-09-25T04:17:36.926Z,0
2018-09-25T04:18:47.111Z,0
2018-09-25T04:19:56.967Z,0
2018-09-25T04:21:06.545Z,0
2018-09-25T04:22:16.398Z,0
2018-09-25T04:23:26.255Z,0
2018-09-25T04:24:35.882Z,0
2018-09-25T04:25:46.018Z,0
2018-09-25T04:26:55.889Z,0
2018-09-25T04:28:05.751Z,0
2018-09-25T04:29:15.886Z,0
2018-09-25T04:30:26.023Z,0
2018-09-25T04:31:36.165Z,0
2018-09-25T04:32:46.300Z,0
2018-09-25T04:33:56.442Z,0
2018-09-25T04:35:06.600Z,0
2018-09-25T04:36:16.512Z,0
2018-09-25T04:37:26.624Z,0
2018-09-25T04:38:36.759Z,0
2018-09-25T04:39:46.068Z,0
2018-09-25T04:40:56.207Z,0
2018-09-25T04:42:06.397Z,0
2018-09-25T04:43:16.558Z,0
2018-09-25T04:44:26.698Z,0
2018-09-25T04:45:36.566Z,0
2018-09-25T04:46:46.691Z,0
2018-09-25T04:47:56.884Z,0
2018-09-25T04:49:06.792Z,0
2018-09-25T04:50:16.107Z,0
2018-09-25T04:51:25.964Z,0
2018-09-25T04:52:35.817Z,0
2018-09-25T04:53:45.989Z,0
2018-09-25T04:54:56.125Z,0
2018-09-25T04:56:06.255Z,0
2018-09-25T04:57:16.503Z,5
2018-09-25T04:58:26.637Z,5
2018-09-25T04:59:36.542Z,5
2018-09-25T05:00:46.133Z,5
2018-09-25T05:01:55.986Z,5
2018-09-25T05:03:06.117Z,10
2018-09-25T05:04:15.969Z,10
2018-09-25T05:05:25.871Z,10
2018-09-25T05:06:35.896Z,10
2018-09-25T05:07:46.027Z,10
2018-09-25T05:08:55.607Z,10
2018-09-25T05:10:05.747Z,10
2018-09-25T05:11:15.600Z,15
2018-09-25T05:12:25.936Z,15
2018-09-25T05:13:36.069Z,15
2018-09-25T05:14:46.650Z,15
2018-09-25T05:15:56.508Z,20
2018-09-25T05:17:06.417Z,20
2018-09-25T05:18:17.305Z,15
2018-09-25T05:19:27.515Z,15
2018-09-25T05:20:37.653Z,20
2018-09-25T05:21:47.514Z,20
2018-09-25T05:22:57.416Z,20
2018-09-25T05:24:06.718Z,20
2018-09-25T05:25:16.306Z,20
2018-09-25T05:26:26.436Z,25
2018-09-25T05:27:36.569Z,25
2018-09-25T05:28:47.046Z,25
2018-09-25T05:29:57.184Z,30
2018-09-25T05:31:07.039Z,25
2018-09-25T05:32:16.895Z,30
2018-09-25T05:33:27.030Z,30
2018-09-25T05:34:37.212Z,30
2018-09-25T05:35:46.789Z,35
2018-09-25T05:36:56.640Z,35
2018-09-25T05:38:06.777Z,40
2018-09-25T05:39:16.906Z,40
2018-09-25T05:40:27.078Z,40
2018-09-25T05:41:36.930Z,40
2018-09-25T05:42:47.076Z,45
2018-09-25T05:43:57.199Z,45
2018-09-25T05:45:07.327Z,45
2018-09-25T05:46:16.955Z,50
2018-09-25T05:47:26.260Z,50
2018-09-25T05:48:36.326Z,50
2018-09-25T05:49:46.475Z,50
2018-09-25T05:50:56.052Z,50
2018-09-25T05:52:06.263Z,50
2018-09-25T05:53:16.399Z,50
2018-09-25T05:54:26.247Z,50
2018-09-25T05:55:36.678Z,55
2018-09-25T05:56:46.550Z,55
2018-09-25T05:57:56.679Z,55
2018-09-25T05:59:06.531Z,55
2018-09-25T06:00:16.390Z,60
2018-09-25T06:01:26.245Z,60
2018-09-25T06:02:36.380Z,60
2018-09-25T06:03:46.285Z,60
2018-09-25T06:04:56.141Z,60
2018-09-25T06:06:06.269Z,60
2018-09-25T06:07:16.125Z,60
2018-09-25T06:08:25.705Z,60
2018-09-25T06:09:36.179Z,60
2018-09-25T06:10:46.321Z,55
2018-09-25T06:11:56.173Z,55
2018-09-25T06:13:06.024Z,60
2018-09-25T06:14:15.875Z,60
2018-09-25T06:15:25.828Z,60
2018-09-25T06:16:35.683Z,65
2018-09-25T06:17:45.548Z,65
2018-09-25T06:18:55.657Z,70
2018-09-25T06:20:05.239Z,75
2018-09-25T06:21:14.882Z,75
2018-09-25T06:22:24.741Z,80
2018-09-25T06:23:34.607Z,85
2018-09-25T06:24:44.740Z,90
2018-09-25T06:25:54.595Z,95
2018-09-25T06:27:04.448Z,100
2018-09-25T06:28:14.300Z,110
2018-09-25T06:29:24.439Z,115
2018-09-25T06:30:34.566Z,120
2018-09-25T06:31:44.426Z,130
2018-09-25T06:32:54.329Z,135
2018-09-25T06:34:04.185Z,140
2018-09-25T06:35:14.039Z,140
2018-09-25T06:36:23.616Z,145
2018-09-25T06:37:33.835Z,145
2018-09-25T06:38:43.879Z,140
2018-09-25T06:40:04.018Z,135
2018-09-25T06:41:14.093Z,135
2018-09-25T06:42:23.919Z,130
2018-09-25T06:43:33.808Z,125
2018-09-25T06:44:44.014Z,130
2018-09-25T06:45:53.879Z,135
2018-09-25T06:47:04.110Z,145
2018-09-25T06:48:13.967Z,150
2018-09-25T06:49:24.093Z,160
2018-09-25T06:50:33.999Z,165
2018-09-25T06:51:44.129Z,170
2018-09-25T06:52:54.347Z,170
2018-09-25T06:54:04.201Z,170
2018-09-25T06:55:13.540Z,180
2018-09-25T06:56:23.761Z,175
2018-09-25T06:57:33.617Z,165
2018-09-25T06:58:43.750Z,165
2018-09-25T06:59:53.339Z,170
2018-09-25T07:01:04.134Z,175
2018-09-25T07:02:14.094Z,175
2018-09-25T07:03:23.945Z,175
2018-09-25T07:04:34.077Z,180
2018-09-25T07:05:43.932Z,175
2018-09-25T07:06:53.812Z,170
2018-09-25T07:08:04.004Z,160
2018-09-25T07:09:13.587Z,155
2018-09-25T07:10:24.223Z,155
2018-09-25T07:11:34.394Z,155
2018-09-25T07:12:44.248Z,155
2018-09-25T07:13:54.432Z,155
2018-09-25T07:15:04.288Z,160
2018-09-25T07:16:14.420Z,165
2018-09-25T07:17:24.558Z,170
2018-09-25T07:18:34.416Z,175
2018-09-25T07:19:44.551Z,180
2018-09-25T07:20:54.681Z,190
2018-09-25T07:22:04.263Z,195
2018-09-25T07:23:14.399Z,195
2018-09-25T07:24:24.267Z,195
2018-09-25T07:25:34.456Z,205
2018-09-25T07:26:44.313Z,210
2018-09-25T07:27:54.441Z,210
2018-09-25T07:29:04.573Z,210
2018-09-25T07:30:14.720Z,220
2018-09-25T07:31:24.849Z,215
2018-09-25T07:32:34.433Z,215
2018-09-25T07:33:44.566Z,220
2018-09-25T07:34:54.694Z,215
2018-09-25T07:36:04.828Z,215
2018-09-25T07:37:15.013Z,215
2018-09-25T07:38:24.921Z,215
2018-09-25T07:39:34.664Z,215
2018-09-25T07:40:44.810Z,215
2018-09-25T07:41:54.395Z,220
2018-09-25T07:43:04.590Z,220
2018-09-25T07:44:14.719Z,225
2018-09-25T07:45:24.575Z,230
2018-09-25T07:46:34.717Z,245
2018-09-25T07:47:44.575Z,255
2018-09-25T07:48:54.751Z,255
2018-09-25T07:50:04.333Z,260
2018-09-25T07:51:13.640Z,265
2018-09-25T07:52:23.770Z,275
2018-09-25T07:53:33.402Z,285
2018-09-25T07:54:43.045Z,285
2018-09-25T07:55:53.142Z,290
2018-09-25T07:57:03.007Z,295
2018-09-25T07:58:13.141Z,300
2018-09-25T07:59:23.006Z,290
2018-09-25T08:00:32.879Z,290
2018-09-25T08:01:43.017Z,285
2018-09-25T08:02:52.599Z,275
2018-09-25T08:04:02.179Z,265
2018-09-25T08:05:11.765Z,265
2018-09-25T08:06:21.950Z,260
2018-09-25T08:07:32.086Z,255
2018-09-25T08:08:41.669Z,260
2018-09-25T08:09:51.799Z,260
2018-09-25T08:11:01.660Z,260
2018-09-25T08:12:11.533Z,265
2018-09-25T08:13:21.664Z,270
2018-09-25T08:14:31.794Z,270
2018-09-25T08:15:41.454Z,280
2018-09-25T08:16:51.323Z,285
2018-09-25T08:18:01.236Z,285
2018-09-25T08:19:11.097Z,290
2018-09-25T08:20:21.239Z,295
2018-09-25T08:21:31.098Z,300
2018-09-25T08:22:40.696Z,310
2018-09-25T08:23:50.882Z,320
2018-09-25T08:25:00.736Z,325
2018-09-25T08:26:10.318Z,330
2018-09-25T08:27:20.454Z,340
2018-09-25T08:28:30.050Z,345
2018-09-25T08:29:40.176Z,345
2018-09-25T08:30:49.726Z,340
2018-09-25T08:31:59.864Z,340
2018-09-25T08:33:09.464Z,340
2018-09-25T08:34:19.609Z,345
2018-09-25T08:35:29.518Z,350
2018-09-25T08:36:39.101Z,350
2018-09-25T08:37:49.241Z,350
2018-09-25T08:38:59.634Z,350
2018-09-25T08:40:09.444Z,355
2018-09-25T08:41:19.302Z,355
2018-09-25T08:42:29.439Z,360
2018-09-25T08:43:38.746Z,365
2018-09-25T08:44:48.611Z,355
2018-09-25T08:45:59.128Z,345
2018-09-25T08:47:08.842Z,325
2018-09-25T08:48:19.006Z,310
2018-09-25T08:49:29.138Z,295
2018-09-25T08:50:39.000Z,280
2018-09-25T08:51:49.129Z,275
2018-09-25T08:52:58.761Z,270
2018-09-25T08:54:08.896Z,265
2018-09-25T08:55:19.028Z,260
2018-09-25T08:56:29.163Z,265
2018-09-25T08:57:39.317Z,275
2018-09-25T08:58:49.176Z,285
2018-09-25T08:59:59.321Z,295
2018-09-25T09:01:09.598Z,305
2018-09-25T09:02:19.453Z,315
2018-09-25T09:03:29.588Z,325
2018-09-25T09:04:39.441Z,330
2018-09-25T09:05:49.300Z,340
2018-09-25T09:06:59.444Z,345
2018-09-25T09:08:09.360Z,350
2018-09-25T09:09:19.239Z,355
2018-09-25T09:10:29.095Z,360
2018-09-25T09:11:38.684Z,360
2018-09-25T09:12:48.539Z,355
2018-09-25T09:13:58.400Z,350
2018-09-25T09:15:08.532Z,350
2018-09-25T09:16:18.666Z,355
2018-09-25T09:17:28.252Z,360
2018-09-25T09:18:38.122Z,360
2018-09-25T09:19:48.920Z,370
2018-09-25T09:20:59.079Z,375
2018-09-25T09:22:08.668Z,385
2018-09-25T09:23:18.268Z,385
2018-09-25T09:24:28.131Z,380
2018-09-25T09:25:37.994Z,375
2018-09-25T09:26:48.126Z,365
2018-09-25T09:27:58.511Z,365
2018-09-25T09:29:08.654Z,360
2018-09-25T09:30:18.513Z,360
2018-09-25T09:31:28.644Z,365
2018-09-25T09:32:39.292Z,360
2018-09-25T09:33:49.337Z,360
2018-09-25T09:34:58.649Z,360
2018-09-25T09:36:08.507Z,355
2018-09-25T09:37:18.366Z,355
2018-09-25T09:38:28.226Z,355
2018-09-25T09:39:38.080Z,360
2018-09-25T09:40:47.937Z,360
2018-09-25T09:41:59.420Z,355
2018-09-25T09:43:08.852Z,350
2018-09-25T09:44:18.711Z,345
2018-09-25T09:45:28.668Z,345
2018-09-25T09:46:37.982Z,345
2018-09-25T09:47:47.291Z,340
2018-09-25T09:48:56.604Z,335
2018-09-25T09:50:06.757Z,330
2018-09-25T09:51:16.636Z,320
2018-09-25T09:52:26.771Z,320
2018-09-25T09:53:36.631Z,310
2018-09-25T09:54:46.221Z,305
2018-09-25T09:55:55.804Z,305
2018-09-25T09:57:05.942Z,305
2018-09-25T09:58:15.799Z,305
2018-09-25T09:59:25.656Z,300
2018-09-25T10:00:35.522Z,300
2018-09-25T10:01:45.666Z,300
2018-09-25T10:02:55.802Z,300
2018-09-25T10:04:05.674Z,300
2018-09-25T10:05:15.805Z,300
2018-09-25T10:06:25.671Z,300
2018-09-25T10:07:35.551Z,300
2018-09-25T10:08:45.696Z,305
2018-09-25T10:09:55.837Z,310
2018-09-25T10:11:05.692Z,310
2018-09-25T10:12:15.608Z,315
2018-09-25T10:13:25.467Z,315
2018-09-25T10:14:35.325Z,320
2018-09-25T10:15:45.217Z,325
2018-09-25T10:16:54.797Z,330
2018-09-25T10:18:04.380Z,335
2018-09-25T10:19:14.014Z,345
2018-09-25T10:20:24.162Z,355
2018-09-25T10:21:34.399Z,360
2018-09-25T10:22:43.988Z,370
2018-09-25T10:23:54.165Z,390
2018-09-25T10:25:03.755Z,405
2018-09-25T10:26:13.908Z,420
2018-09-25T10:27:24.539Z,435
2018-09-25T10:28:34.755Z,445
2018-09-25T10:29:44.609Z,450
2018-09-25T10:30:54.471Z,455
2018-09-25T10:32:04.358Z,460
2018-09-25T10:33:14.217Z,465
2018-09-25T10:34:24.773Z,455
2018-09-25T10:35:34.629Z,450
2018-09-25T10:36:44.213Z,450
2018-09-25T10:37:54.353Z,455
2018-09-25T10:39:04.220Z,460
2018-09-25T10:40:13.811Z,465
2018-09-25T10:41:23.947Z,470
2018-09-25T10:42:33.256Z,475
2018-09-25T10:43:43.396Z,475
2018-09-25T10:44:52.710Z,480
2018-09-25T10:46:02.299Z,490
2018-09-25T10:47:12.433Z,500
2018-09-25T10:48:22.034Z,510
2018-09-25T10:49:31.991Z,525
2018-09-25T10:50:41.854Z,540
2018-09-25T10:51:51.716Z,550
2018-09-25T10:53:01.575Z,555
2018-09-25T10:54:11.160Z,560
2018-09-25T10:55:20.846Z,565
2018-09-25T10:56:30.816Z,585
2018-09-25T10:57:40.682Z,605
2018-09-25T10:58:50.814Z,610
2018-09-25T11:00:00.688Z,625
2018-09-25T11:01:10.555Z,645
2018-09-25T11:02:20.414Z,630
2018-09-25T11:03:30.684Z,640
2018-09-25T11:05:56.993Z,685
2018-09-25T11:08:23.021Z,700
2018-09-25T11:09:33.160Z,705
2018-09-25T11:11:54.360Z,685
2018-09-25T11:13:04.220Z,685
2018-09-25T11:14:14.091Z,680
2018-09-25T11:15:24.233Z,685
2018-09-25T11:16:34.092Z,660
2018-09-25T11:17:44.241Z,655
2018-09-25T11:18:54.049Z,660
2018-09-25T11:20:03.917Z,655
2018-09-25T11:21:14.063Z,645
2018-09-25T11:22:24.201Z,650
2018-09-25T11:23:34.064Z,650
2018-09-25T11:24:43.936Z,635
2018-09-25T11:25:53.808Z,600
2018-09-25T11:27:03.668Z,580
2018-09-25T11:28:13.806Z,575
2018-09-25T11:29:23.940Z,575
2018-09-25T11:30:33.801Z,570
2018-09-25T11:31:43.388Z,550
2018-09-25T11:32:53.534Z,540
2018-09-25T11:34:03.683Z,510
2018-09-25T11:35:14.096Z,495
2018-09-25T11:36:23.960Z,490
2018-09-25T11:37:34.093Z,480
2018-09-25T11:38:43.689Z,465
2018-09-25T11:39:53.822Z,450
2018-09-25T11:41:04.479Z,425
2018-09-25T11:42:13.972Z,400
2018-09-25T11:43:23.837Z,385
2018-09-25T11:44:33.982Z,370
2018-09-25T11:45:44.127Z,360
2018-09-25T11:46:54.643Z,355
2018-09-25T11:48:04.869Z,345
2018-09-25T11:49:15.006Z,340
2018-09-25T11:50:25.150Z,335
2018-09-25T11:51:35.282Z,335
2018-09-25T11:52:45.255Z,330
2018-09-25T11:53:55.130Z,335
2018-09-25T11:55:05.284Z,345
2018-09-25T11:56:15.497Z,345
2018-09-25T11:57:25.643Z,345
2018-09-25T11:58:36.208Z,335
2018-09-25T11:59:46.432Z,330
2018-09-25T12:00:56.565Z,325
2018-09-25T12:02:06.849Z,320
2018-09-25T12:03:16.371Z,315
2018-09-25T12:04:26.648Z,310
2018-09-25T12:05:35.944Z,300
2018-09-25T12:06:45.255Z,295
2018-09-25T12:07:55.117Z,290
2018-09-25T12:09:04.428Z,280
2018-09-25T12:10:14.287Z,275
2018-09-25T12:11:24.348Z,275
2018-09-25T12:12:34.215Z,280
2018-09-25T12:13:44.650Z,280
2018-09-25T12:14:54.581Z,280
2018-09-25T12:16:04.450Z,280
2018-09-25T12:17:14.418Z,280
2018-09-25T12:18:24.555Z,280
2018-09-25T12:19:34.411Z,275
2018-09-25T12:20:44.569Z,270
2018-09-25T12:21:54.485Z,270
2018-09-25T12:23:04.392Z,260
2018-09-25T12:24:14.260Z,255
2018-09-25T12:25:24.125Z,250
2018-09-25T12:26:33.715Z,245
2018-09-25T12:27:43.854Z,240
2018-09-25T12:28:53.541Z,235
2018-09-25T12:30:03.409Z,235
2018-09-25T12:31:12.999Z,240
2018-09-25T12:32:23.182Z,240
2018-09-25T12:33:32.717Z,235
2018-09-25T12:34:42.622Z,230
2018-09-25T12:35:52.482Z,220
2018-09-25T12:37:02.614Z,215
2018-09-25T12:38:12.202Z,210
2018-09-25T12:39:22.071Z,200
2018-09-25T12:40:32.033Z,195
2018-09-25T12:41:41.900Z,190
2018-09-25T12:42:51.759Z,185
2018-09-25T12:44:01.347Z,180
2018-09-25T12:45:10.669Z,175
2018-09-25T12:46:20.588Z,175
2018-09-25T12:47:30.450Z,170
2018-09-25T12:48:40.580Z,170
2018-09-25T12:49:50.717Z,170
2018-09-25T12:51:00.850Z,170
2018-09-25T12:52:10.756Z,170
2018-09-25T12:53:20.616Z,165
2018-09-25T12:54:30.766Z,160
2018-09-25T12:55:40.901Z,160
2018-09-25T12:56:50.484Z,155
2018-09-25T12:58:00.392Z,150
2018-09-25T12:59:10.529Z,145
2018-09-25T13:00:20.663Z,145
2018-09-25T13:01:30.261Z,145
2018-09-25T13:02:40.394Z,140
2018-09-25T13:03:50.100Z,140
2018-09-25T13:04:59.961Z,140
2018-09-25T13:06:09.549Z,140
2018-09-25T13:07:19.689Z,140
2018-09-25T13:08:29.824Z,140
2018-09-25T13:09:39.632Z,135
2018-09-25T13:10:49.549Z,135
2018-09-25T13:11:59.683Z,130
2018-09-25T13:13:09.267Z,125
2018-09-25T13:14:19.142Z,120
2018-09-25T13:15:29.325Z,120
2018-09-25T13:16:39.469Z,115
2018-09-25T13:17:49.062Z,115
2018-09-25T13:18:58.653Z,115
2018-09-25T13:20:08.236Z,120
2018-09-25T13:21:18.529Z,120
2018-09-25T13:22:28.664Z,125
2018-09-25T13:23:38.819Z,125
2018-09-25T13:24:48.975Z,125
2018-09-25T13:25:58.831Z,125
2018-09-25T13:27:08.517Z,120
2018-09-25T13:28:18.100Z,120
2018-09-25T13:29:28.236Z,115
2018-09-25T13:30:38.098Z,115
2018-09-25T13:31:47.960Z,115
2018-09-25T13:32:58.097Z,110
2018-09-25T13:34:08.235Z,110
2018-09-25T13:35:18.377Z,105
2018-09-25T13:36:28.244Z,100
2018-09-25T13:37:38.134Z,100
2018-09-25T13:38:48.037Z,100
2018-09-25T13:39:57.619Z,100
2018-09-25T13:41:07.202Z,95
2018-09-25T13:42:16.792Z,95
2018-09-25T13:43:26.926Z,90
2018-09-25T13:44:36.857Z,90
2018-09-25T13:45:46.773Z,85
2018-09-25T13:46:56.641Z,85
2018-09-25T13:48:06.776Z,85
2018-09-25T13:49:16.632Z,80
2018-09-25T13:50:26.491Z,80
2018-09-25T13:51:36.073Z,80
2018-09-25T13:52:45.657Z,80
2018-09-25T13:53:55.237Z,80
2018-09-25T13:55:05.100Z,80
2018-09-25T13:56:15.713Z,80
2018-09-25T13:57:25.853Z,80
2018-09-25T13:58:35.995Z,85
2018-09-25T13:59:46.134Z,85
2018-09-25T14:00:56.276Z,85
2018-09-25T14:02:06.410Z,85
2018-09-25T14:03:16.284Z,85
2018-09-25T14:04:25.873Z,85
2018-09-25T14:05:35.740Z,85
2018-09-25T14:06:45.871Z,85
2018-09-25T14:07:55.453Z,80
2018-09-25T14:09:05.310Z,80
2018-09-25T14:10:15.168Z,75
2018-09-25T14:11:24.755Z,75
2018-09-25T14:12:34.887Z,75
2018-09-25T14:13:44.747Z,70
2018-09-25T14:14:54.886Z,70
2018-09-25T14:16:05.024Z,70
2018-09-25T14:17:15.169Z,70
2018-09-25T14:18:25.361Z,65
2018-09-25T14:19:35.508Z,65
2018-09-25T14:20:45.646Z,65
2018-09-25T14:21:55.890Z,65
2018-09-25T14:23:06.038Z,65
2018-09-25T14:24:16.169Z,70
2018-09-25T14:25:25.801Z,70
2018-09-25T14:26:35.939Z,70
2018-09-25T14:27:45.674Z,70
2018-09-25T14:28:55.880Z,75
2018-09-25T14:30:05.462Z,80
2018-09-25T14:31:15.650Z,80
2018-09-25T14:32:25.790Z,85
2018-09-25T14:33:35.932Z,85
2018-09-25T14:34:46.078Z,85
2018-09-25T14:35:55.719Z,85
2018-09-25T14:37:05.910Z,85
2018-09-25T14:38:16.051Z,85
2018-09-25T14:39:26.193Z,80
2018-09-25T14:40:36.074Z,75
2018-09-25T14:41:46.272Z,70
2018-09-25T14:42:56.186Z,70
2018-09-25T14:44:06.328Z,70
2018-09-25T14:45:15.916Z,70
2018-09-25T14:46:26.061Z,70
2018-09-25T14:47:36.030Z,75
2018-09-25T14:48:46.738Z,70
2018-09-25T14:49:56.687Z,70
2018-09-25T14:51:06.276Z,70
2018-09-25T14:52:15.861Z,70
2018-09-25T14:53:25.993Z,65
2018-09-25T14:54:36.656Z,60
2018-09-25T14:55:46.449Z,60
2018-09-25T14:56:56.343Z,60
2018-09-25T14:58:06.495Z,60
2018-09-25T14:59:16.632Z,60
2018-09-25T15:00:26.863Z,55
2018-09-25T15:01:36.451Z,55
2018-09-25T15:02:46.306Z,55
2018-09-25T15:03:56.443Z,50
2018-09-25T15:05:05.760Z,50
2018-09-25T15:06:15.826Z,45
2018-09-25T15:07:25.872Z,45
2018-09-25T15:08:35.454Z,45
2018-09-25T15:09:45.039Z,45
2018-09-25T15:10:55.061Z,45
2018-09-25T15:12:05.249Z,40
2018-09-25T15:13:15.379Z,40
2018-09-25T15:14:25.513Z,40
2018-09-25T15:15:35.372Z,40
2018-09-25T15:16:44.959Z,40
2018-09-25T15:17:54.592Z,35
2018-09-25T15:19:03.907Z,35
2018-09-25T15:20:13.499Z,35
2018-09-25T15:21:24.315Z,35
2018-09-25T15:22:34.491Z,35
2018-09-25T15:23:44.625Z,35
2018-09-25T15:24:54.765Z,35
2018-09-25T15:26:04.897Z,35
2018-09-25T15:27:15.054Z,35
2018-09-25T15:28:25.190Z,35
2018-09-25T15:29:34.225Z,35
2018-09-25T15:30:44.358Z,35
2018-09-25T15:31:54.494Z,35
2018-09-25T15:33:04.641Z,35
2018-09-25T15:34:14.804Z,35
2018-09-25T15:35:25.878Z,30
2018-09-25T15:36:36.080Z,30
2018-09-25T15:37:46.227Z,30
2018-09-25T15:38:55.835Z,25
2018-09-25T15:40:05.970Z,25
2018-09-25T15:41:16.182Z,25
2018-09-25T15:42:26.320Z,25
2018-09-25T15:43:36.205Z,20
2018-09-25T15:44:45.807Z,20
2018-09-25T15:45:55.669Z,20
2018-09-25T15:47:05.576Z,20
2018-09-25T15:48:15.413Z,25
2018-09-25T15:49:26.082Z,25
2018-09-25T15:50:36.051Z,25
2018-09-25T15:51:45.911Z,25
2018-09-25T15:52:56.101Z,25
2018-09-25T15:54:05.957Z,25
2018-09-25T15:55:16.094Z,25
2018-09-25T15:56:25.683Z,25
2018-09-25T15:57:35.814Z,25
2018-09-25T15:58:45.722Z,25
2018-09-25T15:59:55.580Z,25
2018-09-25T16:01:05.447Z,25
2018-09-25T16:02:15.587Z,25
2018-09-25T16:03:25.466Z,25
2018-09-25T16:04:35.377Z,25
2018-09-25T16:05:45.519Z,25
2018-09-25T16:06:55.379Z,25
2018-09-25T16:08:05.249Z,25
2018-09-25T16:09:15.117Z,25
2018-09-25T16:10:24.706Z,25
2018-09-25T16:11:34.288Z,25
2018-09-25T16:12:43.873Z,25
2018-09-25T16:13:54.005Z,20
2018-09-25T16:15:04.146Z,20
2018-09-25T16:16:13.784Z,15
2018-09-25T16:17:23.368Z,15
2018-09-25T16:18:33.227Z,15
2018-09-25T16:19:43.764Z,15
2018-09-25T16:20:53.949Z,15
2018-09-25T16:22:04.579Z,15
2018-09-25T16:23:14.775Z,15
2018-09-25T16:24:24.907Z,15
2018-09-25T16:25:34.896Z,15
2018-09-25T16:26:44.484Z,15
2018-09-25T16:27:54.622Z,15
2018-09-25T16:29:03.665Z,15
2018-09-25T16:30:13.250Z,15
2018-09-25T16:31:22.842Z,10
2018-09-25T16:32:33.451Z,10
2018-09-25T16:33:43.392Z,10
2018-09-25T16:34:53.251Z,10
2018-09-25T16:36:02.562Z,10
2018-09-25T16:37:12.149Z,10